createdAt,value
2023-01-13T00:00:00.620Z,8.94
2023-01-13T00:01:00.780Z,8.94
2023-01-13T00:02:00.957Z,8.94
2023-01-13T00:03:01.065Z,8.94
2023-01-13T00:04:01.228Z,8.94
2023-01-13T00:05:00.453Z,8.94
2023-01-13T00:06:00.494Z,8.94
2023-01-13T00:07:00.657Z,8.93
2023-01-13T00:08:00.788Z,8.93
2023-01-13T00:09:00.950Z,8.94
2023-01-13T00:10:01.099Z,8.94
2023-01-13T00:11:01.233Z,8.94
2023-01-13T00:12:00.365Z,8.93
2023-01-13T00:13:00.553Z,8.93
2023-01-13T00:14:00.685Z,8.91
2023-01-13T00:15:00.836Z,8.93
2023-01-13T00:16:01.079Z,8.93
2023-01-13T00:17:01.134Z,8.94
2023-01-13T00:18:00.290Z,8.94
2023-01-13T00:19:00.432Z,8.9
2023-01-13T00:20:00.581Z,8.89
2023-01-13T00:21:00.734Z,8.91
2023-01-13T00:22:00.869Z,8.94
2023-01-13T00:23:01.033Z,8.94
2023-01-13T00:24:01.173Z,8.93
2023-01-13T00:25:00.319Z,8.93
2023-01-13T00:26:00.470Z,8.94
2023-01-13T00:27:00.616Z,8.94
2023-01-13T00:28:00.789Z,8.94
2023-01-13T00:29:00.912Z,8.94
2023-01-13T00:30:01.057Z,8.94
2023-01-13T00:31:01.237Z,8.95
2023-01-13T00:32:00.353Z,8.95
2023-01-13T00:33:00.533Z,8.95
2023-01-13T00:34:00.661Z,8.95
2023-01-13T00:35:00.802Z,8.97
2023-01-13T00:36:00.946Z,8.95
2023-01-13T00:37:01.094Z,8.95
2023-01-13T00:38:01.253Z,8.95
2023-01-13T00:39:00.413Z,9
2023-01-13T00:40:00.549Z,9
2023-01-13T00:41:00.687Z,9
2023-01-13T00:42:00.830Z,9.04
2023-01-13T00:43:00.997Z,9.04
2023-01-13T00:44:01.133Z,9.06
2023-01-13T00:45:00.282Z,9.04
2023-01-13T00:46:00.443Z,9.07
2023-01-13T00:47:00.594Z,9.09
2023-01-13T00:48:00.725Z,9.1
2023-01-13T00:49:00.871Z,9.1
2023-01-13T00:50:01.042Z,9.1
2023-01-13T00:51:01.176Z,9.07
2023-01-13T00:52:00.322Z,9.05
2023-01-13T00:53:00.499Z,9.07
2023-01-13T00:54:00.611Z,9.09
2023-01-13T00:55:00.773Z,9.11
2023-01-13T00:56:00.912Z,9.11
2023-01-13T00:57:01.055Z,9.12
2023-01-13T00:58:01.226Z,9.12
2023-01-13T00:59:00.344Z,9.12
2023-01-13T01:00:00.498Z,9.09
2023-01-13T01:01:00.692Z,9.07
2023-01-13T01:02:00.970Z,9.08
2023-01-13T01:03:00.960Z,9.11
2023-01-13T01:04:01.077Z,9.14
2023-01-13T01:05:01.259Z,9.15
2023-01-13T01:06:00.376Z,9.17
2023-01-13T01:07:00.531Z,9.17
2023-01-13T01:08:00.690Z,9.17
2023-01-13T01:09:00.815Z,9.17
2023-01-13T01:10:00.967Z,9.17
2023-01-13T01:11:01.111Z,9.16
2023-01-13T01:12:01.272Z,9.15
2023-01-13T01:13:00.444Z,9.12
2023-01-13T01:14:00.613Z,9.14
2023-01-13T01:15:00.731Z,9.15
2023-01-13T01:16:00.904Z,9.18
2023-01-13T01:17:01.002Z,9.17
2023-01-13T01:18:01.145Z,9.15
2023-01-13T01:19:00.318Z,9.12
2023-01-13T01:20:00.444Z,9.08
2023-01-13T01:21:00.589Z,9.09
2023-01-13T01:22:00.741Z,9.07
2023-01-13T01:23:00.883Z,9.07
2023-01-13T01:24:01.048Z,9.08
2023-01-13T01:25:01.175Z,9.06
2023-01-13T01:26:00.334Z,9.04
2023-01-13T01:27:00.475Z,9.04
2023-01-13T01:28:00.618Z,9.03
2023-01-13T01:29:00.788Z,9.04
2023-01-13T01:30:00.928Z,9.02
2023-01-13T01:31:01.115Z,8.98
2023-01-13T01:32:01.229Z,8.97
2023-01-13T01:33:00.373Z,9.02
2023-01-13T01:34:00.512Z,9
2023-01-13T01:35:00.681Z,9.02
2023-01-13T01:36:00.818Z,9.01
2023-01-13T01:37:00.966Z,9
2023-01-13T01:38:01.138Z,9.02
2023-01-13T01:39:01.257Z,9.03
2023-01-13T01:40:00.440Z,9.06
2023-01-13T01:41:00.582Z,9.03
2023-01-13T01:42:00.715Z,8.97
2023-01-13T01:43:00.856Z,8.95
2023-01-13T01:44:00.997Z,8.95
2023-01-13T01:45:01.145Z,8.95
2023-01-13T01:46:00.319Z,9.02
2023-01-13T01:47:00.481Z,9.03
2023-01-13T01:48:00.596Z,9
2023-01-13T01:49:00.742Z,8.95
2023-01-13T01:50:00.885Z,9.01
2023-01-13T01:51:01.055Z,9.04
2023-01-13T01:52:01.180Z,9.07
2023-01-13T01:53:00.354Z,9.06
2023-01-13T01:54:00.497Z,9.05
2023-01-13T01:55:00.627Z,9.06
2023-01-13T01:56:00.779Z,9.04
2023-01-13T01:57:00.917Z,8.97
2023-01-13T01:58:01.081Z,8.95
2023-01-13T01:59:01.214Z,8.95
2023-01-13T02:00:00.371Z,8.95
2023-01-13T02:01:00.615Z,8.95
2023-01-13T02:02:00.884Z,8.95
2023-01-13T02:03:00.808Z,8.95
2023-01-13T02:04:00.949Z,8.95
2023-01-13T02:05:01.107Z,8.94
2023-01-13T02:06:01.241Z,8.94
2023-01-13T02:07:00.385Z,8.94
2023-01-13T02:08:00.554Z,8.95
2023-01-13T02:09:00.677Z,8.95
2023-01-13T02:10:00.823Z,8.95
2023-01-13T02:11:00.969Z,8.95
2023-01-13T02:12:01.117Z,8.95
2023-01-13T02:13:01.285Z,9
2023-01-13T02:14:00.417Z,9.01
2023-01-13T02:15:00.553Z,9.03
2023-01-13T02:16:00.738Z,9.05
2023-01-13T02:17:00.850Z,9.06
2023-01-13T02:18:01.020Z,9.04
2023-01-13T02:19:01.156Z,9.02
2023-01-13T02:20:00.291Z,8.95
2023-01-13T02:21:00.448Z,8.95
2023-01-13T02:22:00.604Z,8.95
2023-01-13T02:23:00.771Z,8.94
2023-01-13T02:24:00.916Z,8.94
2023-01-13T02:25:01.051Z,8.95
2023-01-13T02:26:01.209Z,8.95
2023-01-13T02:27:00.348Z,8.94
2023-01-13T02:28:00.491Z,8.94
2023-01-13T02:29:00.665Z,8.94
2023-01-13T02:30:00.781Z,8.94
2023-01-13T02:31:00.939Z,8.89
2023-01-13T02:32:01.077Z,8.85
2023-01-13T02:33:01.260Z,8.87
2023-01-13T02:34:00.379Z,8.91
2023-01-13T02:35:00.547Z,8.93
2023-01-13T02:36:00.665Z,8.93
2023-01-13T02:37:00.813Z,8.94
2023-01-13T02:38:00.991Z,8.93
2023-01-13T02:39:01.099Z,8.89
2023-01-13T02:40:01.244Z,8.91
2023-01-13T02:41:00.392Z,8.93
2023-01-13T02:42:00.545Z,8.94
2023-01-13T02:43:00.702Z,8.94
2023-01-13T02:44:00.826Z,8.94
2023-01-13T02:45:00.973Z,8.9
2023-01-13T02:46:01.198Z,8.9
2023-01-13T02:47:00.278Z,8.91
2023-01-13T02:48:00.440Z,8.93
2023-01-13T02:49:00.571Z,8.93
2023-01-13T02:50:00.714Z,8.94
2023-01-13T02:51:00.858Z,8.94
2023-01-13T02:52:01.011Z,8.94
2023-01-13T02:53:01.188Z,8.94
2023-01-13T02:54:00.299Z,8.94
2023-01-13T02:55:00.455Z,8.94
2023-01-13T02:56:00.603Z,8.94
2023-01-13T02:57:00.751Z,8.94
2023-01-13T02:58:00.917Z,8.94
2023-01-13T02:59:01.064Z,8.94
2023-01-13T03:00:01.183Z,8.94
2023-01-13T03:01:00.496Z,8.93
2023-01-13T03:02:00.706Z,8.94
2023-01-13T03:03:00.738Z,8.91
2023-01-13T03:04:00.797Z,8.89
2023-01-13T03:05:00.927Z,8.9
2023-01-13T03:06:01.073Z,8.93
2023-01-13T03:07:01.226Z,8.93
2023-01-13T03:08:00.377Z,8.93
2023-01-13T03:09:00.549Z,8.92
2023-01-13T03:10:00.679Z,8.93
2023-01-13T03:11:00.835Z,8.91
2023-01-13T03:12:00.982Z,8.86
2023-01-13T03:13:01.157Z,8.83
2023-01-13T03:14:00.309Z,8.82
2023-01-13T03:15:00.482Z,8.81
2023-01-13T03:16:00.593Z,8.81
2023-01-13T03:17:00.742Z,8.79
2023-01-13T03:18:00.918Z,8.78
2023-01-13T03:19:01.039Z,8.77
2023-01-13T03:20:01.225Z,8.77
2023-01-13T03:21:00.337Z,8.75
2023-01-13T03:22:00.488Z,8.73
2023-01-13T03:23:00.623Z,8.72
2023-01-13T03:24:00.764Z,8.7
2023-01-13T03:25:00.932Z,8.71
2023-01-13T03:26:01.050Z,8.7
2023-01-13T03:27:01.208Z,8.71
2023-01-13T03:28:00.355Z,8.71
2023-01-13T03:29:00.540Z,8.68
2023-01-13T03:30:00.654Z,8.68
2023-01-13T03:31:00.826Z,8.66
2023-01-13T03:32:00.940Z,8.68
2023-01-13T03:33:01.094Z,8.7
2023-01-13T03:34:01.261Z,8.66
2023-01-13T03:35:00.381Z,8.64
2023-01-13T03:36:00.522Z,8.64
2023-01-13T03:37:00.689Z,8.65
2023-01-13T03:38:00.816Z,8.64
2023-01-13T03:39:00.970Z,8.65
2023-01-13T03:40:01.146Z,8.66
2023-01-13T03:41:00.278Z,8.65
2023-01-13T03:42:00.404Z,8.62
2023-01-13T03:43:00.561Z,8.6
2023-01-13T03:44:00.702Z,8.61
2023-01-13T03:45:00.871Z,8.61
2023-01-13T03:46:01.105Z,8.6
2023-01-13T03:47:01.158Z,8.62
2023-01-13T03:48:00.292Z,8.62
2023-01-13T03:49:00.438Z,8.62
2023-01-13T03:50:00.597Z,8.59
2023-01-13T03:51:00.735Z,8.58
2023-01-13T03:52:00.891Z,8.61
2023-01-13T03:53:01.058Z,8.61
2023-01-13T03:54:01.183Z,8.59
2023-01-13T03:55:00.363Z,8.57
2023-01-13T03:56:00.494Z,8.55
2023-01-13T03:57:00.626Z,8.55
2023-01-13T03:58:00.811Z,8.55
2023-01-13T03:59:00.926Z,8.51
2023-01-13T04:00:01.086Z,8.51
2023-01-13T04:01:01.333Z,8.48
2023-01-13T04:02:00.584Z,8.48
2023-01-13T04:03:00.513Z,8.48
2023-01-13T04:04:00.720Z,8.49
2023-01-13T04:05:00.814Z,8.51
2023-01-13T04:06:01.004Z,8.52
2023-01-13T04:07:01.125Z,8.51
2023-01-13T04:08:01.259Z,8.52
2023-01-13T04:09:00.411Z,8.55
2023-01-13T04:10:01.995Z,8.57
2023-01-13T04:11:00.715Z,8.57
2023-01-13T04:12:00.841Z,8.57
2023-01-13T04:13:00.992Z,8.58
2023-01-13T04:14:01.130Z,8.58
2023-01-13T04:15:00.282Z,8.55
2023-01-13T04:16:00.510Z,8.55
2023-01-13T04:17:00.631Z,8.56
2023-01-13T04:18:00.767Z,8.58
2023-01-13T04:19:00.897Z,8.59
2023-01-13T04:20:01.049Z,8.57
2023-01-13T04:21:01.203Z,8.56
2023-01-13T04:22:00.357Z,8.53
2023-01-13T04:23:00.493Z,8.52
2023-01-13T04:24:00.622Z,8.5
2023-01-13T04:25:00.786Z,8.46
2023-01-13T04:26:00.925Z,8.44
2023-01-13T04:27:01.069Z,8.41
2023-01-13T04:28:01.223Z,8.42
2023-01-13T04:29:00.369Z,8.45
2023-01-13T04:30:00.527Z,8.45
2023-01-13T04:31:00.739Z,8.44
2023-01-13T04:32:00.811Z,8.45
2023-01-13T04:33:00.950Z,8.45
2023-01-13T04:34:01.137Z,8.45
2023-01-13T04:35:01.252Z,8.45
2023-01-13T04:36:00.398Z,8.45
2023-01-13T04:37:00.557Z,8.45
2023-01-13T04:38:00.714Z,8.45
2023-01-13T04:39:00.884Z,8.47
2023-01-13T04:40:00.993Z,8.49
2023-01-13T04:41:01.153Z,8.5
2023-01-13T04:42:00.305Z,8.49
2023-01-13T04:43:00.448Z,8.48
2023-01-13T04:44:00.629Z,8.48
2023-01-13T04:45:00.763Z,8.5
2023-01-13T04:46:00.965Z,8.51
2023-01-13T04:47:01.066Z,8.49
2023-01-13T04:48:01.226Z,8.46
2023-01-13T04:49:00.363Z,8.44
2023-01-13T04:50:00.496Z,8.42
2023-01-13T04:51:00.641Z,8.44
2023-01-13T04:52:00.794Z,8.46
2023-01-13T04:53:00.948Z,8.46
2023-01-13T04:54:01.111Z,8.46
2023-01-13T04:55:01.256Z,8.46
2023-01-13T04:56:00.406Z,8.47
2023-01-13T04:57:00.544Z,8.46
2023-01-13T04:58:00.690Z,8.46
2023-01-13T04:59:00.890Z,8.44
2023-01-13T05:00:00.999Z,8.43
2023-01-13T05:01:01.176Z,8.37
2023-01-13T05:02:00.383Z,8.34
2023-01-13T05:03:00.431Z,8.3
2023-01-13T05:04:00.607Z,8.31
2023-01-13T05:05:00.777Z,8.34
2023-01-13T05:06:00.885Z,8.33
2023-01-13T05:07:01.028Z,8.34
2023-01-13T05:08:01.196Z,8.34
2023-01-13T05:09:00.397Z,8.35
2023-01-13T05:10:00.497Z,8.33
2023-01-13T05:11:00.657Z,8.3
2023-01-13T05:12:00.807Z,8.28
2023-01-13T05:13:00.960Z,8.28
2023-01-13T05:14:01.137Z,8.28
2023-01-13T05:15:00.258Z,8.26
2023-01-13T05:16:00.533Z,8.26
2023-01-13T05:17:01.591Z,8.28
2023-01-13T05:18:00.703Z,8.29
2023-01-13T05:19:00.879Z,8.29
2023-01-13T05:20:01.027Z,8.27
2023-01-13T05:21:01.159Z,8.27
2023-01-13T05:22:00.308Z,8.28
2023-01-13T05:23:00.450Z,8.28
2023-01-13T05:24:00.599Z,8.28
2023-01-13T05:25:00.777Z,8.3
2023-01-13T05:26:00.890Z,8.33
2023-01-13T05:27:01.049Z,8.37
2023-01-13T05:28:01.196Z,8.37
2023-01-13T05:29:00.336Z,8.37
2023-01-13T05:30:00.539Z,8.39
2023-01-13T05:31:00.722Z,8.42
2023-01-13T05:32:00.779Z,8.44
2023-01-13T05:33:00.931Z,8.43
2023-01-13T05:34:01.083Z,8.44
2023-01-13T05:35:01.245Z,8.45
2023-01-13T05:36:00.361Z,8.47
2023-01-13T05:37:00.512Z,8.49
2023-01-13T05:38:00.675Z,8.5
2023-01-13T05:39:00.820Z,8.5
2023-01-13T05:40:00.976Z,8.55
2023-01-13T05:41:01.113Z,8.55
2023-01-13T05:42:00.261Z,8.56
2023-01-13T05:43:00.413Z,8.56
2023-01-13T05:44:00.570Z,8.53
2023-01-13T05:45:00.734Z,8.51
2023-01-13T05:46:00.999Z,8.49
2023-01-13T05:47:01.032Z,8.45
2023-01-13T05:48:01.163Z,8.44
2023-01-13T05:49:00.304Z,8.45
2023-01-13T05:50:00.451Z,8.44
2023-01-13T05:51:00.615Z,8.44
2023-01-13T05:52:00.735Z,8.43
2023-01-13T05:53:00.891Z,8.42
2023-01-13T05:54:01.032Z,8.45
2023-01-13T05:55:01.200Z,8.48
2023-01-13T05:56:00.338Z,8.52
2023-01-13T05:57:00.470Z,8.56
2023-01-13T05:58:00.612Z,8.58
2023-01-13T05:59:00.769Z,8.61
2023-01-13T06:00:00.913Z,8.63
2023-01-13T06:01:01.148Z,8.63
2023-01-13T06:02:01.212Z,8.62
2023-01-13T06:03:00.542Z,8.61
2023-01-13T06:04:00.570Z,8.58
2023-01-13T06:05:00.634Z,8.55
2023-01-13T06:06:00.795Z,8.5
2023-01-13T06:07:00.931Z,8.49
2023-01-13T06:08:01.064Z,8.52
2023-01-13T06:09:01.226Z,8.57
2023-01-13T06:10:00.425Z,8.59
2023-01-13T06:11:00.528Z,8.58
2023-01-13T06:12:00.653Z,8.55
2023-01-13T06:13:00.809Z,8.53
2023-01-13T06:14:00.959Z,8.55
2023-01-13T06:15:01.094Z,8.56
2023-01-13T06:16:01.349Z,8.55
2023-01-13T06:17:00.392Z,8.56
2023-01-13T06:18:00.540Z,8.58
2023-01-13T06:19:00.697Z,8.58
2023-01-13T06:20:00.849Z,8.55
2023-01-13T06:21:01.000Z,8.49
2023-01-13T06:22:01.127Z,8.48
2023-01-13T06:23:00.282Z,8.49
2023-01-13T06:24:00.427Z,8.5
2023-01-13T06:25:00.572Z,8.53
2023-01-13T06:26:00.732Z,8.57
2023-01-13T06:27:00.890Z,8.57
2023-01-13T06:28:01.020Z,8.58
2023-01-13T06:29:01.157Z,8.55
2023-01-13T06:30:00.320Z,8.55
2023-01-13T06:31:00.463Z,8.55
2023-01-13T06:32:00.623Z,8.56
2023-01-13T06:33:00.765Z,8.57
2023-01-13T06:34:00.927Z,8.58
2023-01-13T06:35:01.056Z,8.61
2023-01-13T06:36:01.198Z,8.63
2023-01-13T06:37:00.370Z,8.64
2023-01-13T06:38:00.525Z,8.64
2023-01-13T06:39:00.641Z,8.66
2023-01-13T06:40:00.788Z,8.67
2023-01-13T06:41:00.935Z,8.66
2023-01-13T06:42:01.103Z,8.66
2023-01-13T06:43:01.281Z,8.68
2023-01-13T06:44:00.390Z,8.68
2023-01-13T06:45:00.560Z,8.71
2023-01-13T06:46:00.695Z,8.7
2023-01-13T06:47:00.875Z,8.72
2023-01-13T06:48:01.006Z,8.73
2023-01-13T06:49:01.142Z,8.73
2023-01-13T06:50:00.309Z,8.72
2023-01-13T06:51:00.439Z,8.7
2023-01-13T06:52:00.581Z,8.7
2023-01-13T06:53:00.752Z,8.68
2023-01-13T06:54:00.893Z,8.67
2023-01-13T06:55:01.051Z,8.68
2023-01-13T06:56:01.190Z,8.73
2023-01-13T06:57:00.343Z,8.76
2023-01-13T06:58:00.487Z,8.76
2023-01-13T06:59:00.646Z,8.76
2023-01-13T07:00:00.754Z,8.75
2023-01-13T07:01:01.062Z,8.74
2023-01-13T07:02:01.240Z,8.73
2023-01-13T07:03:01.230Z,8.73
2023-01-13T07:04:00.349Z,8.73
2023-01-13T07:05:00.529Z,8.75
2023-01-13T07:06:00.635Z,8.74
2023-01-13T07:07:00.784Z,8.73
2023-01-13T07:08:00.940Z,8.72
2023-01-13T07:09:01.144Z,8.74
2023-01-13T07:10:01.228Z,8.75
2023-01-13T07:11:00.371Z,8.74
2023-01-13T07:12:00.504Z,8.75
2023-01-13T07:13:00.655Z,8.76
2023-01-13T07:14:00.817Z,8.77
2023-01-13T07:15:00.947Z,8.76
2023-01-13T07:16:01.170Z,8.75
2023-01-13T07:17:01.240Z,8.74
2023-01-13T07:18:00.376Z,8.72
2023-01-13T07:19:00.590Z,8.71
2023-01-13T07:20:00.688Z,8.68
2023-01-13T07:21:00.811Z,8.71
2023-01-13T07:22:00.952Z,8.74
2023-01-13T07:23:01.106Z,8.74
2023-01-13T07:24:00.278Z,8.73
2023-01-13T07:25:00.408Z,8.73
2023-01-13T07:26:00.555Z,8.73
2023-01-13T07:27:00.706Z,8.72
2023-01-13T07:28:00.867Z,8.71
2023-01-13T07:29:01.015Z,8.68
2023-01-13T07:30:01.160Z,8.65
2023-01-13T07:31:00.317Z,8.62
2023-01-13T07:32:00.546Z,8.61
2023-01-13T07:33:00.635Z,8.59
2023-01-13T07:34:00.794Z,8.57
2023-01-13T07:35:00.959Z,8.55
2023-01-13T07:36:01.083Z,8.55
2023-01-13T07:37:01.219Z,8.55
2023-01-13T07:38:00.393Z,8.55
2023-01-13T07:39:00.535Z,8.59
2023-01-13T07:40:00.672Z,8.6
2023-01-13T07:41:00.826Z,8.59
2023-01-13T07:42:00.993Z,8.65
2023-01-13T07:43:01.155Z,8.68
2023-01-13T07:44:00.386Z,8.67
2023-01-13T07:45:00.411Z,8.65
2023-01-13T07:46:00.592Z,8.66
2023-01-13T07:47:00.724Z,8.68
2023-01-13T07:48:00.880Z,8.71
2023-01-13T07:49:00.998Z,8.73
2023-01-13T07:50:01.130Z,8.71
2023-01-13T07:51:00.277Z,8.7
2023-01-13T07:52:00.420Z,8.7
2023-01-13T07:53:00.586Z,8.68
2023-01-13T07:54:00.740Z,8.66
2023-01-13T07:55:00.869Z,8.65
2023-01-13T07:56:01.000Z,8.67
2023-01-13T07:57:01.171Z,8.7
2023-01-13T07:58:00.289Z,8.71
2023-01-13T07:59:00.461Z,8.71
2023-01-13T08:00:00.619Z,8.71
2023-01-13T08:01:00.889Z,8.68
2023-01-13T08:02:01.109Z,8.67
2023-01-13T08:03:01.101Z,8.67
2023-01-13T08:04:01.184Z,8.7
2023-01-13T08:05:00.338Z,8.71
2023-01-13T08:06:00.482Z,8.71
2023-01-13T08:07:00.639Z,8.68
2023-01-13T08:08:00.777Z,8.67
2023-01-13T08:09:00.920Z,8.68
2023-01-13T08:10:01.061Z,8.66
2023-01-13T08:11:01.199Z,8.66
2023-01-13T08:12:00.366Z,8.66
2023-01-13T08:13:00.491Z,8.65
2023-01-13T08:14:00.640Z,8.64
2023-01-13T08:15:00.783Z,8.65
2023-01-13T08:16:00.924Z,8.67
2023-01-13T08:17:01.092Z,8.71
2023-01-13T08:18:01.227Z,8.76
2023-01-13T08:19:00.390Z,8.77
2023-01-13T08:20:00.531Z,8.78
2023-01-13T08:21:00.659Z,8.77
2023-01-13T08:22:00.824Z,8.78
2023-01-13T08:23:00.958Z,8.77
2023-01-13T08:24:01.114Z,8.33
2023-01-13T08:25:01.261Z,7.74
2023-01-13T08:26:00.415Z,7.27
2023-01-13T08:27:00.588Z,6.93
2023-01-13T08:28:00.707Z,6.7
2023-01-13T08:29:00.846Z,6.51
2023-01-13T08:30:00.994Z,6.39
2023-01-13T08:31:01.212Z,6.3
2023-01-13T08:32:00.330Z,6.23
2023-01-13T08:33:00.428Z,6.16
2023-01-13T08:34:00.580Z,6.13
2023-01-13T08:35:00.734Z,6.12
2023-01-13T08:36:00.890Z,6.1
2023-01-13T08:37:01.030Z,6.09
2023-01-13T08:38:01.162Z,6.11
2023-01-13T08:39:00.316Z,6.13
2023-01-13T08:40:00.471Z,6.13
2023-01-13T08:41:00.636Z,6.14
2023-01-13T08:42:00.775Z,6.13
2023-01-13T08:43:00.900Z,6.11
2023-01-13T08:44:01.064Z,6.1
2023-01-13T08:45:01.214Z,6.09
2023-01-13T08:46:00.461Z,6.07
2023-01-13T08:47:00.511Z,6.06
2023-01-13T08:48:00.625Z,6.07
2023-01-13T08:49:00.782Z,6.06
2023-01-13T08:50:00.947Z,6.05
2023-01-13T08:51:01.095Z,6.04
2023-01-13T08:52:01.277Z,6.04
2023-01-13T08:53:00.389Z,6.04
2023-01-13T08:54:00.521Z,6.04
2023-01-13T08:55:00.677Z,6.04
2023-01-13T08:56:00.846Z,6.02
2023-01-13T08:57:01.043Z,6.02
2023-01-13T08:58:14.569Z,6.02
2023-01-13T08:59:00.281Z,6.02
2023-01-13T09:00:00.437Z,6.02
2023-01-13T09:01:00.687Z,6.04
2023-01-13T09:02:00.928Z,6.05
2023-01-13T09:03:00.884Z,6.06
2023-01-13T09:04:01.093Z,6.08
2023-01-13T09:05:01.175Z,6.1
2023-01-13T09:06:00.329Z,6.11
2023-01-13T09:07:00.489Z,6.11
2023-01-13T09:08:00.611Z,6.13
2023-01-13T09:09:00.767Z,6.13
2023-01-13T09:10:00.904Z,6.14
2023-01-13T09:11:01.055Z,6.14
2023-01-13T09:12:01.227Z,6.15
2023-01-13T09:13:00.378Z,6.17
2023-01-13T09:14:03.213Z,6.2
2023-01-13T09:15:00.641Z,6.2
2023-01-13T09:16:00.854Z,6.2
2023-01-13T09:17:00.982Z,6.2
2023-01-13T09:18:01.096Z,6.2
2023-01-13T09:19:01.269Z,6.2
2023-01-13T09:20:00.396Z,6.2
2023-01-13T09:21:00.527Z,6.2
2023-01-13T09:22:00.683Z,6.2
2023-01-13T09:23:00.827Z,6.2
2023-01-13T09:24:00.993Z,6.2
2023-01-13T09:25:01.156Z,6.2
2023-01-13T09:26:00.262Z,6.2
2023-01-13T09:27:00.416Z,6.2
2023-01-13T09:28:00.567Z,6.2
2023-01-13T09:29:00.728Z,6.2
2023-01-13T09:30:00.902Z,6.2
2023-01-13T09:31:01.082Z,6.21
2023-01-13T09:32:01.177Z,6.21
2023-01-13T09:33:00.374Z,6.21
2023-01-13T09:34:00.491Z,6.21
2023-01-13T09:35:00.667Z,6.21
2023-01-13T09:36:00.770Z,6.22
2023-01-13T09:37:00.918Z,6.23
2023-01-13T09:38:01.090Z,6.23
2023-01-13T09:39:01.211Z,6.25
2023-01-13T09:40:00.389Z,6.25
2023-01-13T09:41:00.514Z,6.25
2023-01-13T09:42:00.646Z,6.24
2023-01-13T09:43:00.786Z,6.24
2023-01-13T09:44:00.942Z,6.23
2023-01-13T09:45:01.099Z,6.24
2023-01-13T09:46:01.297Z,6.25
2023-01-13T09:47:00.378Z,6.26
2023-01-13T09:48:00.523Z,6.27
2023-01-13T09:49:00.667Z,6.26
2023-01-13T09:50:00.831Z,6.29
2023-01-13T09:51:01.039Z,6.3
2023-01-13T09:52:01.121Z,6.33
2023-01-13T09:53:01.267Z,6.34
2023-01-13T09:54:00.413Z,6.35
2023-01-13T09:55:00.607Z,6.35
2023-01-13T09:56:00.738Z,6.36
2023-01-13T09:57:00.863Z,6.38
2023-01-13T09:58:00.999Z,6.38
2023-01-13T09:59:01.157Z,6.39
2023-01-13T10:00:00.321Z,6.39
2023-01-13T10:01:00.506Z,6.4
2023-01-13T10:02:00.612Z,6.41
2023-01-13T10:03:00.739Z,6.42
2023-01-13T10:04:00.897Z,6.42
2023-01-13T10:05:01.162Z,6.44
2023-01-13T10:06:01.176Z,6.46
2023-01-13T10:07:00.350Z,6.5
2023-01-13T10:08:00.468Z,6.51
2023-01-13T10:09:00.615Z,6.53
2023-01-13T10:10:00.756Z,6.56
2023-01-13T10:11:00.902Z,6.57
2023-01-13T10:12:01.102Z,6.58
2023-01-13T10:13:01.197Z,6.6
2023-01-13T10:14:00.365Z,6.61
2023-01-13T10:15:00.500Z,6.61
2023-01-13T10:16:02.910Z,6.61
2023-01-13T10:17:00.818Z,6.61
2023-01-13T10:18:00.950Z,6.61
2023-01-13T10:19:01.135Z,6.61
2023-01-13T10:20:01.248Z,6.63
2023-01-13T10:21:00.379Z,6.64
2023-01-13T10:22:00.557Z,6.64
2023-01-13T10:23:00.677Z,6.66
2023-01-13T10:24:00.834Z,6.67
2023-01-13T10:25:00.985Z,6.69
2023-01-13T10:26:01.191Z,6.72
2023-01-13T10:27:00.284Z,6.74
2023-01-13T10:28:00.410Z,6.78
2023-01-13T10:29:00.558Z,6.82
2023-01-13T10:30:00.720Z,6.84
2023-01-13T10:31:00.916Z,6.85
2023-01-13T10:32:01.032Z,6.86
2023-01-13T10:33:01.185Z,6.88
2023-01-13T10:34:00.292Z,6.9
2023-01-13T10:35:00.449Z,6.93
2023-01-13T10:36:00.626Z,6.93
2023-01-13T10:37:00.746Z,6.95
2023-01-13T10:38:00.914Z,6.94
2023-01-13T10:39:01.059Z,6.95
2023-01-13T10:40:01.211Z,6.97
2023-01-13T10:41:00.395Z,6.99
2023-01-13T10:42:00.523Z,6.99
2023-01-13T10:43:00.680Z,6.98
2023-01-13T10:44:00.806Z,7
2023-01-13T10:45:00.949Z,7.01
2023-01-13T10:46:01.110Z,7.01
2023-01-13T10:47:01.250Z,7.04
2023-01-13T10:48:00.404Z,7.05
2023-01-13T10:49:00.577Z,7.08
2023-01-13T10:50:00.672Z,7.09
2023-01-13T10:51:00.830Z,7.09
2023-01-13T10:52:01.023Z,7.1
2023-01-13T10:53:01.145Z,7.11
2023-01-13T10:54:00.301Z,7.11
2023-01-13T10:55:00.456Z,7.12
2023-01-13T10:56:00.603Z,7.15
2023-01-13T10:57:00.733Z,7.14
2023-01-13T10:58:00.878Z,7.15
2023-01-13T10:59:01.080Z,7.16
2023-01-13T11:00:01.166Z,7.17
2023-01-13T11:01:00.398Z,7.17
2023-01-13T11:02:01.254Z,7.15
2023-01-13T11:03:00.617Z,7.15
2023-01-13T11:04:00.777Z,7.14
2023-01-13T11:05:00.975Z,7.13
2023-01-13T11:06:01.065Z,7.11
2023-01-13T11:07:01.206Z,7.11
2023-01-13T11:08:00.362Z,7.08
2023-01-13T11:09:00.514Z,7.05
2023-01-13T11:10:00.677Z,7.08
2023-01-13T11:11:00.797Z,7.05
2023-01-13T11:12:00.946Z,7.07
2023-01-13T11:13:01.129Z,7.09
2023-01-13T11:14:01.277Z,7.08
2023-01-13T11:15:00.470Z,7.09
2023-01-13T11:16:00.658Z,7.1
2023-01-13T11:17:00.698Z,7.12
2023-01-13T11:18:00.848Z,7.12
2023-01-13T11:19:01.006Z,7.18
2023-01-13T11:20:01.182Z,7.22
2023-01-13T11:21:00.325Z,7.26
2023-01-13T11:22:00.463Z,7.3
2023-01-13T11:23:00.601Z,7.33
2023-01-13T11:24:00.758Z,7.37
2023-01-13T11:25:00.894Z,7.41
2023-01-13T11:26:01.024Z,7.43
2023-01-13T11:27:01.171Z,7.45
2023-01-13T11:28:00.311Z,7.47
2023-01-13T11:29:00.477Z,7.48
2023-01-13T11:30:00.629Z,7.5
2023-01-13T11:31:00.814Z,7.53
2023-01-13T11:32:00.900Z,7.58
2023-01-13T11:33:01.068Z,7.61
2023-01-13T11:34:01.209Z,7.64
2023-01-13T11:35:00.349Z,7.7
2023-01-13T11:36:00.511Z,7.75
2023-01-13T11:37:00.629Z,7.81
2023-01-13T11:38:00.770Z,7.87
2023-01-13T11:39:00.936Z,7.94
2023-01-13T11:40:01.069Z,7.96
2023-01-13T11:41:01.243Z,7.97
2023-01-13T11:42:00.356Z,7.99
2023-01-13T11:43:00.530Z,7.98
2023-01-13T11:44:00.654Z,7.93
2023-01-13T11:45:00.809Z,7.9
2023-01-13T11:46:00.979Z,7.86
2023-01-13T11:47:01.211Z,7.79
2023-01-13T11:48:01.273Z,7.74
2023-01-13T11:49:00.402Z,7.7
2023-01-13T11:50:00.539Z,7.62
2023-01-13T11:51:00.694Z,7.6
2023-01-13T11:52:00.867Z,7.6
2023-01-13T11:53:00.981Z,7.6
2023-01-13T11:54:01.137Z,7.61
2023-01-13T11:55:00.273Z,7.6
2023-01-13T11:56:00.417Z,7.61
2023-01-13T11:57:00.600Z,7.63
2023-01-13T11:58:00.719Z,7.67
2023-01-13T11:59:00.873Z,7.7
2023-01-13T12:00:01.019Z,7.73
2023-01-13T12:01:01.232Z,7.74
2023-01-13T12:02:00.457Z,7.74
2023-01-13T12:03:00.527Z,7.73
2023-01-13T12:04:00.637Z,7.71
2023-01-13T12:05:00.778Z,7.7
2023-01-13T12:06:00.907Z,7.7
2023-01-13T12:07:01.062Z,7.71
2023-01-13T12:08:01.249Z,7.7
2023-01-13T12:09:00.383Z,7.72
2023-01-13T12:10:00.520Z,7.75
2023-01-13T12:11:00.647Z,7.84
2023-01-13T12:12:00.816Z,7.91
2023-01-13T12:13:00.967Z,7.99
2023-01-13T12:14:01.159Z,8.06
2023-01-13T12:15:01.252Z,8.16
2023-01-13T12:16:00.364Z,8.24
2023-01-13T12:17:01.383Z,8.31
2023-01-13T12:18:00.667Z,8.36
2023-01-13T12:19:00.840Z,8.41
2023-01-13T12:20:00.967Z,8.45
2023-01-13T12:21:01.126Z,8.5
2023-01-13T12:23:00.370Z,8.63
2023-01-13T12:24:00.554Z,8.64
2023-01-13T12:25:00.663Z,8.62
2023-01-13T12:26:00.804Z,8.59
2023-01-13T12:27:00.953Z,8.59
2023-01-13T12:28:01.103Z,8.59
2023-01-13T12:29:01.375Z,8.63
2023-01-13T12:30:00.390Z,8.62
2023-01-13T12:31:00.565Z,8.61
2023-01-13T12:32:00.738Z,8.6
2023-01-13T12:33:00.846Z,8.62
2023-01-13T12:34:00.991Z,8.64
2023-01-13T12:35:01.135Z,8.68
2023-01-13T12:36:00.295Z,8.76
2023-01-13T12:37:00.443Z,8.79
2023-01-13T12:38:00.602Z,8.81
2023-01-13T12:39:00.722Z,8.83
2023-01-13T12:40:00.878Z,8.88
2023-01-13T12:41:01.017Z,8.93
2023-01-13T12:42:01.173Z,8.87
2023-01-13T12:43:00.334Z,8.81
2023-01-13T12:44:00.478Z,8.75
2023-01-13T12:45:00.641Z,8.71
2023-01-13T12:46:00.872Z,8.67
2023-01-13T12:47:00.930Z,8.62
2023-01-13T12:48:01.091Z,8.59
2023-01-13T12:49:01.242Z,8.57
2023-01-13T12:50:00.387Z,8.55
2023-01-13T12:51:00.609Z,8.53
2023-01-13T12:52:00.684Z,8.5
2023-01-13T12:53:00.826Z,8.5
2023-01-13T12:54:00.979Z,8.49
2023-01-13T12:55:01.136Z,8.45
2023-01-13T12:56:00.287Z,8.44
2023-01-13T12:57:00.417Z,8.42
2023-01-13T12:58:00.563Z,8.39
2023-01-13T12:59:00.708Z,8.35
2023-01-13T13:00:00.861Z,8.35
2023-01-13T13:01:01.177Z,8.36
2023-01-13T13:02:01.419Z,8.35
2023-01-13T13:03:00.454Z,8.36
2023-01-13T13:04:00.458Z,8.36
2023-01-13T13:05:00.656Z,8.36
2023-01-13T13:06:00.793Z,8.37
2023-01-13T13:07:00.928Z,8.39
2023-01-13T13:08:01.055Z,8.37
2023-01-13T13:09:03.698Z,8.37
2023-01-13T13:10:00.361Z,8.41
2023-01-13T13:11:00.513Z,8.42
2023-01-13T13:12:00.699Z,8.45
2023-01-13T13:13:00.809Z,8.44
2023-01-13T13:14:00.941Z,8.44
2023-01-13T13:15:03.217Z,8.43
2023-01-13T13:16:01.239Z,8.43
2023-01-13T13:17:00.467Z,8.41
2023-01-13T13:18:00.564Z,8.42
2023-01-13T13:19:00.679Z,8.39
2023-01-13T13:20:00.831Z,8.37
2023-01-13T13:21:03.747Z,8.39
2023-01-13T13:22:01.148Z,8.39